sensor_id;sensor_type;location;lat;lon;timestamp;P1;durP1;ratioP1;P2;durP2;ratioP2
69956;SDS011;57283;54.816;9.482;2022-09-27T03:01:50;8.93;;;1.58;;
69956;SDS011;57283;54.816;9.482;2022-09-27T03:04:24;6.43;;;1.90;;
69956;SDS011;57283;54.816;9.482;2022-09-27T03:06:55;7.38;;;2.00;;
69956;SDS011;57283;54.816;9.482;2022-09-27T03:09:28;7.07;;;2.00;;
69956;SDS011;57283;54.816;9.482;2022-09-27T03:11:56;6.22;;;1.88;;
69956;SDS011;57283;54.816;9.482;2022-09-27T03:14:23;6.13;;;2.15;;
69956;SDS011;57283;54.816;9.482;2022-09-27T03:16:52;5.57;;;1.97;;
69956;SDS011;57283;54.816;9.482;2022-09-27T03:19:20;9.45;;;2.58;;
69956;SDS011;57283;54.816;9.482;2022-09-27T03:21:47;6.97;;;2.17;;
69956;SDS011;57283;54.816;9.482;2022-09-27T03:24:15;6.32;;;2.10;;
69956;SDS011;57283;54.816;9.482;2022-09-27T03:26:42;5.47;;;2.10;;
69956;SDS011;57283;54.816;9.482;2022-09-27T03:29:10;4.50;;;1.90;;
69956;SDS011;57283;54.816;9.482;2022-09-27T03:31:38;6.80;;;2.33;;
69956;SDS011;57283;54.816;9.482;2022-09-27T03:34:07;6.97;;;2.35;;
69956;SDS011;57283;54.816;9.482;2022-09-27T03:36:35;9.10;;;2.30;;
69956;SDS011;57283;54.816;9.482;2022-09-27T03:39:03;7.70;;;2.05;;
69956;SDS011;57283;54.816;9.482;2022-09-27T03:41:30;6.07;;;2.00;;
69956;SDS011;57283;54.816;9.482;2022-09-27T03:43:58;10.63;;;2.15;;
69956;SDS011;57283;54.816;9.482;2022-09-27T03:46:26;6.80;;;1.80;;
69956;SDS011;57283;54.816;9.482;2022-09-27T03:48:53;9.38;;;2.50;;
69956;SDS011;57283;54.816;9.482;2022-09-27T03:51:23;7.78;;;2.10;;
69956;SDS011;57283;54.816;9.482;2022-09-27T03:53:50;8.33;;;2.33;;
69956;SDS011;57283;54.816;9.482;2022-09-27T03:56:18;6.57;;;2.38;;
69956;SDS011;57283;54.816;9.482;2022-09-27T03:58:46;7.80;;;2.38;;
69956;SDS011;57283;54.816;9.482;2022-09-27T04:01:13;7.47;;;1.98;;
69956;SDS011;57283;54.816;9.482;2022-09-27T04:03:41;11.88;;;2.67;;
69956;SDS011;57283;54.816;9.482;2022-09-27T04:06:08;8.20;;;2.20;;
69956;SDS011;57283;54.816;9.482;2022-09-27T04:08:37;7.50;;;2.30;;
69956;SDS011;57283;54.816;9.482;2022-09-27T04:11:05;10.02;;;2.80;;
69956;SDS011;57283;54.816;9.482;2022-09-27T04:13:33;8.75;;;2.58;;
69956;SDS011;57283;54.816;9.482;2022-09-27T04:16:00;8.63;;;2.78;;
69956;SDS011;57283;54.816;9.482;2022-09-27T04:18:28;8.37;;;2.47;;
69956;SDS011;57283;54.816;9.482;2022-09-27T04:20:56;6.90;;;2.70;;
69956;SDS011;57283;54.816;9.482;2022-09-27T04:23:23;9.68;;;3.40;;
69956;SDS011;57283;54.816;9.482;2022-09-27T04:25:56;8.50;;;3.10;;
69956;SDS011;57283;54.816;9.482;2022-09-27T04:28:24;9.90;;;3.15;;
69956;SDS011;57283;54.816;9.482;2022-09-27T04:30:52;8.10;;;2.97;;
69956;SDS011;57283;54.816;9.482;2022-09-27T04:33:20;10.75;;;2.97;;
69956;SDS011;57283;54.816;9.482;2022-09-27T04:35:48;8.07;;;2.85;;
69956;SDS011;57283;54.816;9.482;2022-09-27T04:38:34;8.00;;;2.70;;
69956;SDS011;57283;54.816;9.482;2022-09-27T04:41:03;9.20;;;2.85;;
69956;SDS011;57283;54.816;9.482;2022-09-27T04:43:30;8.60;;;2.50;;
69956;SDS011;57283;54.816;9.482;2022-09-27T04:45:58;10.60;;;2.70;;
69956;SDS011;57283;54.816;9.482;2022-09-27T04:48:26;9.40;;;2.30;;
69956;SDS011;57283;54.816;9.482;2022-09-27T04:50:56;9.77;;;2.50;;
69956;SDS011;57283;54.816;9.482;2022-09-27T04:53:24;6.30;;;2.20;;
69956;SDS011;57283;54.816;9.482;2022-09-27T04:55:52;8.50;;;2.50;;
69956;SDS011;57283;54.816;9.482;2022-09-27T04:58:22;8.85;;;2.40;;
69956;SDS011;57283;54.816;9.482;2022-09-27T05:00:49;7.80;;;2.10;;
69956;SDS011;57283;54.816;9.482;2022-09-27T05:03:21;8.25;;;2.38;;
69956;SDS011;57283;54.816;9.482;2022-09-27T05:05:48;7.28;;;2.35;;
69956;SDS011;57283;54.816;9.482;2022-09-27T05:08:16;12.70;;;2.70;;
69956;SDS011;57283;54.816;9.482;2022-09-27T05:10:43;9.55;;;3.08;;
69956;SDS011;57283;54.816;9.482;2022-09-27T05:13:12;9.32;;;2.50;;
69956;SDS011;57283;54.816;9.482;2022-09-27T05:15:41;7.50;;;2.15;;
69956;SDS011;57283;54.816;9.482;2022-09-27T05:18:09;6.45;;;2.53;;
69956;SDS011;57283;54.816;9.482;2022-09-27T05:20:37;7.20;;;2.43;;
69956;SDS011;57283;54.816;9.482;2022-09-27T05:23:05;9.82;;;2.35;;
69956;SDS011;57283;54.816;9.482;2022-09-27T05:25:33;7.40;;;2.50;;
69956;SDS011;57283;54.816;9.482;2022-09-27T05:28:01;6.50;;;2.53;;
69956;SDS011;57283;54.816;9.482;2022-09-27T05:30:28;8.73;;;2.58;;
69956;SDS011;57283;54.816;9.482;2022-09-27T05:33:00;9.60;;;2.80;;
69956;SDS011;57283;54.816;9.482;2022-09-27T05:35:28;7.43;;;2.80;;
69956;SDS011;57283;54.816;9.482;2022-09-27T05:37:56;6.95;;;2.30;;
69956;SDS011;57283;54.816;9.482;2022-09-27T05:40:24;7.40;;;2.28;;
69956;SDS011;57283;54.816;9.482;2022-09-27T05:43:08;8.55;;;2.50;;
69956;SDS011;57283;54.816;9.482;2022-09-27T05:45:35;6.70;;;2.00;;
69956;SDS011;57283;54.816;9.482;2022-09-27T05:48:04;10.77;;;2.30;;
69956;SDS011;57283;54.816;9.482;2022-09-27T05:50:32;10.07;;;2.67;;
69956;SDS011;57283;54.816;9.482;2022-09-27T05:53:00;7.88;;;2.20;;
69956;SDS011;57283;54.816;9.482;2022-09-27T05:55:27;7.35;;;2.17;;
69956;SDS011;57283;54.816;9.482;2022-09-27T05:57:56;8.03;;;2.20;;
69956;SDS011;57283;54.816;9.482;2022-09-27T06:00:24;11.90;;;2.47;;
69956;SDS011;57283;54.816;9.482;2022-09-27T06:02:53;8.00;;;2.25;;
69956;SDS011;57283;54.816;9.482;2022-09-27T06:05:23;6.05;;;2.10;;
69956;SDS011;57283;54.816;9.482;2022-09-27T06:07:52;7.18;;;2.00;;
69956;SDS011;57283;54.816;9.482;2022-09-27T06:10:24;9.50;;;2.37;;
69956;SDS011;57283;54.816;9.482;2022-09-27T06:12:51;7.10;;;2.28;;
69956;SDS011;57283;54.816;9.482;2022-09-27T06:15:19;9.65;;;2.15;;
69956;SDS011;57283;54.816;9.482;2022-09-27T06:17:46;7.25;;;1.90;;
69956;SDS011;57283;54.816;9.482;2022-09-27T06:20:14;7.72;;;2.28;;
69956;SDS011;57283;54.816;9.482;2022-09-27T06:22:45;8.27;;;2.20;;
69956;SDS011;57283;54.816;9.482;2022-09-27T06:25:12;7.35;;;1.90;;
69956;SDS011;57283;54.816;9.482;2022-09-27T06:27:40;8.48;;;2.00;;
69956;SDS011;57283;54.816;9.482;2022-09-27T06:30:08;6.38;;;1.80;;
69956;SDS011;57283;54.816;9.482;2022-09-27T06:32:43;6.72;;;1.60;;
69956;SDS011;57283;54.816;9.482;2022-09-27T06:35:11;5.87;;;1.80;;
69956;SDS011;57283;54.816;9.482;2022-09-27T06:37:38;8.68;;;1.80;;
69956;SDS011;57283;54.816;9.482;2022-09-27T06:40:08;5.40;;;1.70;;
69956;SDS011;57283;54.816;9.482;2022-09-27T06:42:35;5.47;;;1.65;;
69956;SDS011;57283;54.816;9.482;2022-09-27T06:45:04;5.72;;;1.90;;
69956;SDS011;57283;54.816;9.482;2022-09-27T06:47:34;6.97;;;1.87;;
69956;SDS011;57283;54.816;9.482;2022-09-27T06:50:01;6.60;;;1.80;;
69956;SDS011;57283;54.816;9.482;2022-09-27T06:52:30;7.25;;;1.90;;
69956;SDS011;57283;54.816;9.482;2022-09-27T06:54:58;5.47;;;1.75;;
69956;SDS011;57283;54.816;9.482;2022-09-27T06:57:27;6.82;;;2.00;;
69956;SDS011;57283;54.816;9.482;2022-09-27T07:00:12;7.00;;;1.93;;
69956;SDS011;57283;54.816;9.482;2022-09-27T07:02:52;6.57;;;1.70;;
69956;SDS011;57283;54.816;9.482;2022-09-27T07:05:20;7.22;;;1.60;;
69956;SDS011;57283;54.816;9.482;2022-09-27T07:07:48;5.43;;;1.63;;
69956;SDS011;57283;54.816;9.482;2022-09-27T07:10:15;5.20;;;1.83;;
69956;SDS011;57283;54.816;9.482;2022-09-27T07:12:45;5.20;;;1.77;;
69956;SDS011;57283;54.816;9.482;2022-09-27T07:15:14;7.22;;;1.70;;
69956;SDS011;57283;54.816;9.482;2022-09-27T07:17:41;5.72;;;1.55;;
69956;SDS011;57283;54.816;9.482;2022-09-27T07:20:09;4.75;;;1.50;;
69956;SDS011;57283;54.816;9.482;2022-09-27T07:22:40;6.75;;;1.75;;
69956;SDS011;57283;54.816;9.482;2022-09-27T07:25:09;5.07;;;1.97;;
69956;SDS011;57283;54.816;9.482;2022-09-27T07:27:37;6.30;;;1.67;;
69956;SDS011;57283;54.816;9.482;2022-09-27T07:30:08;4.53;;;1.42;;
69956;SDS011;57283;54.816;9.482;2022-09-27T07:32:37;5.78;;;1.60;;
69956;SDS011;57283;54.816;9.482;2022-09-27T07:35:05;6.00;;;1.42;;
69956;SDS011;57283;54.816;9.482;2022-09-27T07:37:33;5.73;;;1.67;;
69956;SDS011;57283;54.816;9.482;2022-09-27T07:40:02;4.25;;;1.60;;
69956;SDS011;57283;54.816;9.482;2022-09-27T07:42:30;6.55;;;1.55;;
69956;SDS011;57283;54.816;9.482;2022-09-27T07:44:57;5.75;;;1.50;;
69956;SDS011;57283;54.816;9.482;2022-09-27T07:47:26;5.40;;;1.75;;
69956;SDS011;57283;54.816;9.482;2022-09-27T07:49:54;5.57;;;1.40;;
69956;SDS011;57283;54.816;9.482;2022-09-27T07:52:21;7.18;;;1.73;;
69956;SDS011;57283;54.816;9.482;2022-09-27T07:54:49;6.65;;;1.85;;
69956;SDS011;57283;54.816;9.482;2022-09-27T07:57:20;5.40;;;2.00;;
69956;SDS011;57283;54.816;9.482;2022-09-27T07:59:47;6.55;;;1.60;;
69956;SDS011;57283;54.816;9.482;2022-09-27T08:02:16;6.13;;;1.50;;
69956;SDS011;57283;54.816;9.482;2022-09-27T08:04:45;7.55;;;1.80;;
69956;SDS011;57283;54.816;9.482;2022-09-27T08:07:13;5.45;;;1.52;;
69956;SDS011;57283;54.816;9.482;2022-09-27T08:09:41;9.75;;;2.13;;
69956;SDS011;57283;54.816;9.482;2022-09-27T08:12:08;8.18;;;2.20;;
69956;SDS011;57283;54.816;9.482;2022-09-27T08:14:36;7.47;;;1.77;;
69956;SDS011;57283;54.816;9.482;2022-09-27T08:17:12;7.60;;;1.80;;
69956;SDS011;57283;54.816;9.482;2022-09-27T08:19:40;6.28;;;1.77;;
69956;SDS011;57283;54.816;9.482;2022-09-27T08:22:11;8.00;;;2.15;;
69956;SDS011;57283;54.816;9.482;2022-09-27T08:24:39;7.07;;;1.83;;
69956;SDS011;57283;54.816;9.482;2022-09-27T08:27:07;8.50;;;1.77;;
69956;SDS011;57283;54.816;9.482;2022-09-27T08:29:37;9.82;;;1.70;;
69956;SDS011;57283;54.816;9.482;2022-09-27T08:32:07;7.55;;;1.85;;
69956;SDS011;57283;54.816;9.482;2022-09-27T08:34:35;7.07;;;1.88;;
69956;SDS011;57283;54.816;9.482;2022-09-27T08:37:02;10.13;;;1.80;;
69956;SDS011;57283;54.816;9.482;2022-09-27T08:39:31;8.40;;;2.23;;
69956;SDS011;57283;54.816;9.482;2022-09-27T08:42:01;9.00;;;2.15;;
69956;SDS011;57283;54.816;9.482;2022-09-27T08:44:34;6.82;;;1.58;;
69956;SDS011;57283;54.816;9.482;2022-09-27T08:47:05;6.65;;;1.45;;
69956;SDS011;57283;54.816;9.482;2022-09-27T08:49:35;6.18;;;1.42;;
69956;SDS011;57283;54.816;9.482;2022-09-27T08:52:04;6.80;;;1.50;;
69956;SDS011;57283;54.816;9.482;2022-09-27T08:54:34;7.95;;;1.80;;
69956;SDS011;57283;54.816;9.482;2022-09-27T08:57:05;6.03;;;1.60;;
69956;SDS011;57283;54.816;9.482;2022-09-27T08:59:34;5.57;;;1.85;;
69956;SDS011;57283;54.816;9.482;2022-09-27T09:02:03;7.55;;;1.95;;
69956;SDS011;57283;54.816;9.482;2022-09-27T09:04:32;5.67;;;1.50;;
69956;SDS011;57283;54.816;9.482;2022-09-27T09:07:04;10.57;;;1.85;;
69956;SDS011;57283;54.816;9.482;2022-09-27T09:09:39;7.50;;;1.50;;
69956;SDS011;57283;54.816;9.482;2022-09-27T09:12:14;7.25;;;1.48;;
69956;SDS011;57283;54.816;9.482;2022-09-27T09:15:06;5.97;;;1.48;;
69956;SDS011;57283;54.816;9.482;2022-09-27T09:17:42;6.10;;;1.53;;
69956;SDS011;57283;54.816;9.482;2022-09-27T09:20:18;6.13;;;1.55;;
69956;SDS011;57283;54.816;9.482;2022-09-27T09:22:53;6.78;;;1.77;;
69956;SDS011;57283;54.816;9.482;2022-09-27T09:25:26;4.75;;;1.40;;
69956;SDS011;57283;54.816;9.482;2022-09-27T09:28:00;5.63;;;1.20;;
69956;SDS011;57283;54.816;9.482;2022-09-27T09:30:30;5.10;;;1.10;;
69956;SDS011;57283;54.816;9.482;2022-09-27T09:33:07;4.70;;;1.30;;
69956;SDS011;57283;54.816;9.482;2022-09-27T09:35:42;4.65;;;1.02;;
69956;SDS011;57283;54.816;9.482;2022-09-27T09:38:12;4.45;;;1.10;;
69956;SDS011;57283;54.816;9.482;2022-09-27T09:40:45;4.32;;;1.40;;
69956;SDS011;57283;54.816;9.482;2022-09-27T09:43:14;5.27;;;1.37;;
69956;SDS011;57283;54.816;9.482;2022-09-27T09:45:44;5.65;;;1.48;;
69956;SDS011;57283;54.816;9.482;2022-09-27T09:48:14;5.85;;;1.60;;
69956;SDS011;57283;54.816;9.482;2022-09-27T09:50:46;5.20;;;1.80;;
69956;SDS011;57283;54.816;9.482;2022-09-27T09:53:15;7.00;;;2.03;;
69956;SDS011;57283;54.816;9.482;2022-09-27T09:55:47;6.43;;;1.80;;
69956;SDS011;57283;54.816;9.482;2022-09-27T09:58:19;5.75;;;1.63;;
69956;SDS011;57283;54.816;9.482;2022-09-27T10:00:48;7.05;;;1.90;;
69956;SDS011;57283;54.816;9.482;2022-09-27T10:03:17;6.25;;;1.67;;
69956;SDS011;57283;54.816;9.482;2022-09-27T10:05:45;6.25;;;1.60;;
69956;SDS011;57283;54.816;9.482;2022-09-27T10:08:15;5.47;;;1.40;;
69956;SDS011;57283;54.816;9.482;2022-09-27T10:10:43;5.22;;;1.30;;
69956;SDS011;57283;54.816;9.482;2022-09-27T10:13:13;5.72;;;1.52;;
69956;SDS011;57283;54.816;9.482;2022-09-27T10:15:41;6.30;;;1.48;;
69956;SDS011;57283;54.816;9.482;2022-09-27T10:18:11;7.13;;;1.40;;
69956;SDS011;57283;54.816;9.482;2022-09-27T10:20:42;6.03;;;1.40;;
69956;SDS011;57283;54.816;9.482;2022-09-27T10:23:12;5.47;;;1.45;;
69956;SDS011;57283;54.816;9.482;2022-09-27T10:25:47;6.22;;;1.50;;
69956;SDS011;57283;54.816;9.482;2022-09-27T10:28:30;5.05;;;1.30;;
69956;SDS011;57283;54.816;9.482;2022-09-27T10:30:59;6.00;;;1.40;;
69956;SDS011;57283;54.816;9.482;2022-09-27T10:33:27;4.50;;;1.40;;
69956;SDS011;57283;54.816;9.482;2022-09-27T10:35:57;7.75;;;1.52;;
69956;SDS011;57283;54.816;9.482;2022-09-27T10:38:26;6.95;;;1.67;;
69956;SDS011;57283;54.816;9.482;2022-09-27T10:40:54;5.65;;;1.80;;
69956;SDS011;57283;54.816;9.482;2022-09-27T10:43:29;6.60;;;1.75;;
69956;SDS011;57283;54.816;9.482;2022-09-27T10:46:09;7.17;;;1.50;;
69956;SDS011;57283;54.816;9.482;2022-09-27T10:48:39;3.90;;;1.30;;
69956;SDS011;57283;54.816;9.482;2022-09-27T10:51:18;7.50;;;1.90;;
69956;SDS011;57283;54.816;9.482;2022-09-27T10:53:48;5.72;;;1.70;;
69956;SDS011;57283;54.816;9.482;2022-09-27T10:56:23;5.38;;;1.48;;
69956;SDS011;57283;54.816;9.482;2022-09-27T10:58:54;5.83;;;1.90;;
69956;SDS011;57283;54.816;9.482;2022-09-27T11:01:22;4.53;;;1.73;;
69956;SDS011;57283;54.816;9.482;2022-09-27T11:03:51;7.00;;;1.77;;
69956;SDS011;57283;54.816;9.482;2022-09-27T11:06:25;5.30;;;1.73;;
69956;SDS011;57283;54.816;9.482;2022-09-27T11:08:54;5.60;;;1.83;;
69956;SDS011;57283;54.816;9.482;2022-09-27T11:11:23;4.57;;;1.60;;
69956;SDS011;57283;54.816;9.482;2022-09-27T11:13:59;7.03;;;1.85;;
69956;SDS011;57283;54.816;9.482;2022-09-27T11:16:33;5.88;;;1.80;;
69956;SDS011;57283;54.816;9.482;2022-09-27T11:19:06;5.70;;;1.67;;
69956;SDS011;57283;54.816;9.482;2022-09-27T11:21:42;5.05;;;1.83;;
69956;SDS011;57283;54.816;9.482;2022-09-27T11:24:16;5.00;;;1.50;;
69956;SDS011;57283;54.816;9.482;2022-09-27T11:26:50;4.68;;;1.45;;
69956;SDS011;57283;54.816;9.482;2022-09-27T11:29:23;4.85;;;1.58;;
69956;SDS011;57283;54.816;9.482;2022-09-27T11:31:57;5.80;;;1.80;;
69956;SDS011;57283;54.816;9.482;2022-09-27T11:37:15;4.93;;;1.60;;
69956;SDS011;57283;54.816;9.482;2022-09-27T11:39:51;5.45;;;2.10;;
69956;SDS011;57283;54.816;9.482;2022-09-27T11:42:27;4.43;;;1.65;;
69956;SDS011;57283;54.816;9.482;2022-09-27T11:45:09;6.18;;;1.88;;
69956;SDS011;57283;54.816;9.482;2022-09-27T11:48:04;4.75;;;1.70;;
69956;SDS011;57283;54.816;9.482;2022-09-27T11:50:41;4.83;;;1.50;;
69956;SDS011;57283;54.816;9.482;2022-09-27T11:53:15;5.75;;;1.60;;
69956;SDS011;57283;54.816;9.482;2022-09-27T11:55:46;4.80;;;1.55;;
69956;SDS011;57283;54.816;9.482;2022-09-27T11:58:18;5.15;;;1.75;;
69956;SDS011;57283;54.816;9.482;2022-09-27T12:00:53;4.15;;;1.85;;
69956;SDS011;57283;54.816;9.482;2022-09-27T12:06:09;5.70;;;1.90;;
69956;SDS011;57283;54.816;9.482;2022-09-27T12:11:25;6.00;;;2.00;;
69956;SDS011;57283;54.816;9.482;2022-09-27T12:13:56;7.22;;;1.83;;
69956;SDS011;57283;54.816;9.482;2022-09-27T12:16:25;7.10;;;1.67;;
69956;SDS011;57283;54.816;9.482;2022-09-27T12:18:53;5.43;;;1.60;;
69956;SDS011;57283;54.816;9.482;2022-09-27T12:21:22;4.53;;;1.80;;
69956;SDS011;57283;54.816;9.482;2022-09-27T12:23:51;5.30;;;1.70;;
69956;SDS011;57283;54.816;9.482;2022-09-27T12:26:19;5.35;;;1.70;;
69956;SDS011;57283;54.816;9.482;2022-09-27T12:28:50;6.90;;;1.70;;
69956;SDS011;57283;54.816;9.482;2022-09-27T12:31:20;5.05;;;1.50;;
69956;SDS011;57283;54.816;9.482;2022-09-27T12:34:13;4.47;;;1.67;;
69956;SDS011;57283;54.816;9.482;2022-09-27T12:36:46;4.68;;;1.60;;
69956;SDS011;57283;54.816;9.482;2022-09-27T12:39:16;5.18;;;2.00;;
69956;SDS011;57283;54.816;9.482;2022-09-27T12:41:46;4.87;;;1.77;;
69956;SDS011;57283;54.816;9.482;2022-09-27T12:44:15;5.97;;;1.60;;
69956;SDS011;57283;54.816;9.482;2022-09-27T12:46:45;5.10;;;1.80;;
69956;SDS011;57283;54.816;9.482;2022-09-27T12:49:19;3.78;;;1.40;;
69956;SDS011;57283;54.816;9.482;2022-09-27T12:51:51;6.22;;;1.67;;
69956;SDS011;57283;54.816;9.482;2022-09-27T12:54:24;5.53;;;1.67;;
69956;SDS011;57283;54.816;9.482;2022-09-27T12:56:59;4.38;;;1.60;;
69956;SDS011;57283;54.816;9.482;2022-09-27T12:59:39;6.55;;;1.40;;
69956;SDS011;57283;54.816;9.482;2022-09-27T13:02:23;4.50;;;1.58;;
69956;SDS011;57283;54.816;9.482;2022-09-27T13:05:07;4.22;;;1.60;;
69956;SDS011;57283;54.816;9.482;2022-09-27T13:07:45;5.83;;;1.57;;
69956;SDS011;57283;54.816;9.482;2022-09-27T13:10:28;5.10;;;1.70;;
69956;SDS011;57283;54.816;9.482;2022-09-27T13:12:57;9.35;;;2.55;;
69956;SDS011;57283;54.816;9.482;2022-09-27T13:15:26;6.85;;;1.98;;
69956;SDS011;57283;54.816;9.482;2022-09-27T13:17:55;6.65;;;2.22;;
69956;SDS011;57283;54.816;9.482;2022-09-27T13:20:35;4.70;;;1.50;;
69956;SDS011;57283;54.816;9.482;2022-09-27T13:23:04;5.97;;;1.92;;
69956;SDS011;57283;54.816;9.482;2022-09-27T13:25:51;5.28;;;1.70;;
69956;SDS011;57283;54.816;9.482;2022-09-27T13:28:32;4.38;;;1.67;;
69956;SDS011;57283;54.816;9.482;2022-09-27T13:31:01;6.63;;;1.80;;
69956;SDS011;57283;54.816;9.482;2022-09-27T13:33:31;4.57;;;1.53;;
69956;SDS011;57283;54.816;9.482;2022-09-27T13:36:07;6.07;;;1.90;;
69956;SDS011;57283;54.816;9.482;2022-09-27T13:38:50;5.25;;;1.50;;
69956;SDS011;57283;54.816;9.482;2022-09-27T13:41:18;4.30;;;1.40;;
69956;SDS011;57283;54.816;9.482;2022-09-27T13:43:56;6.13;;;1.80;;
69956;SDS011;57283;54.816;9.482;2022-09-27T13:46:28;5.00;;;1.50;;
69956;SDS011;57283;54.816;9.482;2022-09-27T13:48:57;5.13;;;1.40;;
69956;SDS011;57283;54.816;9.482;2022-09-27T13:51:29;6.25;;;1.70;;
69956;SDS011;57283;54.816;9.482;2022-09-27T13:54:00;6.45;;;1.40;;
69956;SDS011;57283;54.816;9.482;2022-09-27T13:56:49;7.25;;;1.50;;
69956;SDS011;57283;54.816;9.482;2022-09-27T13:59:18;5.00;;;1.30;;
69956;SDS011;57283;54.816;9.482;2022-09-27T14:01:48;3.55;;;1.30;;
69956;SDS011;57283;54.816;9.482;2022-09-27T14:04:17;4.30;;;1.38;;
69956;SDS011;57283;54.816;9.482;2022-09-27T14:06:47;4.22;;;1.40;;
69956;SDS011;57283;54.816;9.482;2022-09-27T14:09:17;5.28;;;1.50;;
69956;SDS011;57283;54.816;9.482;2022-09-27T14:11:47;4.30;;;1.30;;
69956;SDS011;57283;54.816;9.482;2022-09-27T14:14:19;4.38;;;1.30;;
69956;SDS011;57283;54.816;9.482;2022-09-27T14:16:48;4.53;;;1.35;;
69956;SDS011;57283;54.816;9.482;2022-09-27T14:19:17;4.18;;;1.30;;
69956;SDS011;57283;54.816;9.482;2022-09-27T14:21:45;5.13;;;1.35;;
69956;SDS011;57283;54.816;9.482;2022-09-27T14:24:21;3.37;;;1.37;;
69956;SDS011;57283;54.816;9.482;2022-09-27T14:26:48;4.78;;;1.45;;
69956;SDS011;57283;54.816;9.482;2022-09-27T14:29:16;4.60;;;1.50;;
69956;SDS011;57283;54.816;9.482;2022-09-27T14:31:44;4.95;;;1.63;;
69956;SDS011;57283;54.816;9.482;2022-09-27T14:34:14;4.40;;;1.30;;
69956;SDS011;57283;54.816;9.482;2022-09-27T14:36:42;4.57;;;1.30;;
69956;SDS011;57283;54.816;9.482;2022-09-27T14:39:37;6.32;;;1.50;;
69956;SDS011;57283;54.816;9.482;2022-09-27T14:42:15;5.03;;;1.38;;
69956;SDS011;57283;54.816;9.482;2022-09-27T14:44:43;4.00;;;1.30;;
69956;SDS011;57283;54.816;9.482;2022-09-27T14:47:15;6.43;;;1.50;;
69956;SDS011;57283;54.816;9.482;2022-09-27T14:49:47;4.97;;;1.33;;
69956;SDS011;57283;54.816;9.482;2022-09-27T14:52:15;4.68;;;1.40;;
69956;SDS011;57283;54.816;9.482;2022-09-27T14:54:53;5.72;;;1.73;;
69956;SDS011;57283;54.816;9.482;2022-09-27T14:57:21;8.32;;;1.40;;
69956;SDS011;57283;54.816;9.482;2022-09-27T14:59:48;5.20;;;1.40;;
69956;SDS011;57283;54.816;9.482;2022-09-27T15:02:16;6.73;;;2.03;;
69956;SDS011;57283;54.816;9.482;2022-09-27T15:04:45;4.88;;;1.50;;
69956;SDS011;57283;54.816;9.482;2022-09-27T15:07:14;4.72;;;1.30;;
69956;SDS011;57283;54.816;9.482;2022-09-27T15:09:42;6.50;;;1.42;;
69956;SDS011;57283;54.816;9.482;2022-09-27T15:12:13;5.47;;;1.20;;
69956;SDS011;57283;54.816;9.482;2022-09-27T15:14:42;7.07;;;1.67;;
69956;SDS011;57283;54.816;9.482;2022-09-27T15:17:17;3.83;;;1.40;;
69956;SDS011;57283;54.816;9.482;2022-09-27T15:19:56;5.85;;;1.70;;
69956;SDS011;57283;54.816;9.482;2022-09-27T15:22:30;5.68;;;1.60;;
69956;SDS011;57283;54.816;9.482;2022-09-27T15:25:03;4.05;;;1.17;;
69956;SDS011;57283;54.816;9.482;2022-09-27T15:27:32;4.07;;;1.30;;
69956;SDS011;57283;54.816;9.482;2022-09-27T15:29:59;4.38;;;1.30;;
69956;SDS011;57283;54.816;9.482;2022-09-27T15:32:27;4.60;;;1.10;;
69956;SDS011;57283;54.816;9.482;2022-09-27T15:34:55;4.20;;;1.30;;
69956;SDS011;57283;54.816;9.482;2022-09-27T15:37:24;3.90;;;1.20;;
69956;SDS011;57283;54.816;9.482;2022-09-27T15:39:52;4.33;;;1.30;;
69956;SDS011;57283;54.816;9.482;2022-09-27T15:42:20;5.65;;;1.40;;
69956;SDS011;57283;54.816;9.482;2022-09-27T15:44:50;4.22;;;1.13;;
69956;SDS011;57283;54.816;9.482;2022-09-27T15:52:52;7.47;;;2.83;;
69956;SDS011;57283;54.816;9.482;2022-09-27T15:55:22;6.43;;;1.83;;
69956;SDS011;57283;54.816;9.482;2022-09-27T15:57:52;5.65;;;2.10;;
69956;SDS011;57283;54.816;9.482;2022-09-27T16:00:21;7.47;;;1.80;;
69956;SDS011;57283;54.816;9.482;2022-09-27T16:02:49;5.10;;;1.60;;
69956;SDS011;57283;54.816;9.482;2022-09-27T16:05:17;4.87;;;1.67;;
69956;SDS011;57283;54.816;9.482;2022-09-27T16:07:44;7.47;;;2.03;;
69956;SDS011;57283;54.816;9.482;2022-09-27T16:10:12;6.57;;;2.40;;
69956;SDS011;57283;54.816;9.482;2022-09-27T16:12:40;6.18;;;2.15;;
69956;SDS011;57283;54.816;9.482;2022-09-27T16:15:07;5.43;;;1.90;;
69956;SDS011;57283;54.816;9.482;2022-09-27T16:17:36;5.77;;;1.40;;
69956;SDS011;57283;54.816;9.482;2022-09-27T16:20:05;5.85;;;1.60;;
69956;SDS011;57283;54.816;9.482;2022-09-27T16:22:34;4.95;;;1.38;;
69956;SDS011;57283;54.816;9.482;2022-09-27T16:25:01;4.15;;;1.10;;
69956;SDS011;57283;54.816;9.482;2022-09-27T16:27:29;5.20;;;1.23;;
69956;SDS011;57283;54.816;9.482;2022-09-27T16:29:57;4.50;;;1.33;;
69956;SDS011;57283;54.816;9.482;2022-09-27T16:32:24;4.07;;;1.15;;
69956;SDS011;57283;54.816;9.482;2022-09-27T16:34:53;5.65;;;1.77;;
69956;SDS011;57283;54.816;9.482;2022-09-27T16:37:22;6.68;;;1.85;;
69956;SDS011;57283;54.816;9.482;2022-09-27T16:39:49;6.97;;;1.50;;
69956;SDS011;57283;54.816;9.482;2022-09-27T16:42:17;7.43;;;1.33;;
69956;SDS011;57283;54.816;9.482;2022-09-27T16:44:44;6.30;;;1.30;;
69956;SDS011;57283;54.816;9.482;2022-09-27T16:47:14;6.45;;;2.05;;
69956;SDS011;57283;54.816;9.482;2022-09-27T16:49:41;5.78;;;1.60;;
69956;SDS011;57283;54.816;9.482;2022-09-27T16:52:29;9.23;;;2.05;;
69956;SDS011;57283;54.816;9.482;2022-09-27T16:54:57;7.60;;;1.37;;
69956;SDS011;57283;54.816;9.482;2022-09-27T16:57:25;8.38;;;1.33;;
69956;SDS011;57283;54.816;9.482;2022-09-27T16:59:53;6.80;;;1.80;;
69956;SDS011;57283;54.816;9.482;2022-09-27T17:02:21;3.90;;;1.13;;
69956;SDS011;57283;54.816;9.482;2022-09-27T17:04:49;3.90;;;1.20;;
69956;SDS011;57283;54.816;9.482;2022-09-27T17:07:16;4.70;;;1.00;;
69956;SDS011;57283;54.816;9.482;2022-09-27T17:09:45;5.35;;;1.00;;
69956;SDS011;57283;54.816;9.482;2022-09-27T17:12:13;4.03;;;1.23;;
69956;SDS011;57283;54.816;9.482;2022-09-27T17:14:41;6.55;;;1.30;;
69956;SDS011;57283;54.816;9.482;2022-09-27T17:17:08;5.13;;;1.35;;
69956;SDS011;57283;54.816;9.482;2022-09-27T17:19:36;5.00;;;1.30;;
69956;SDS011;57283;54.816;9.482;2022-09-27T17:22:05;5.28;;;1.48;;
69956;SDS011;57283;54.816;9.482;2022-09-27T17:24:32;3.60;;;1.30;;
69956;SDS011;57283;54.816;9.482;2022-09-27T17:27:02;7.55;;;1.33;;
69956;SDS011;57283;54.816;9.482;2022-09-27T17:29:29;4.35;;;1.27;;
69956;SDS011;57283;54.816;9.482;2022-09-27T17:31:57;4.63;;;1.07;;
69956;SDS011;57283;54.816;9.482;2022-09-27T17:34:25;4.47;;;1.20;;
69956;SDS011;57283;54.816;9.482;2022-09-27T17:36:53;4.13;;;1.05;;
69956;SDS011;57283;54.816;9.482;2022-09-27T17:39:21;4.53;;;1.40;;
69956;SDS011;57283;54.816;9.482;2022-09-27T17:41:48;4.65;;;1.30;;
69956;SDS011;57283;54.816;9.482;2022-09-27T17:44:18;5.00;;;1.33;;
69956;SDS011;57283;54.816;9.482;2022-09-27T17:46:45;4.43;;;1.10;;
69956;SDS011;57283;54.816;9.482;2022-09-27T17:49:33;4.45;;;1.27;;
69956;SDS011;57283;54.816;9.482;2022-09-27T17:52:18;4.53;;;1.20;;
69956;SDS011;57283;54.816;9.482;2022-09-27T17:54:45;4.85;;;1.70;;
69956;SDS011;57283;54.816;9.482;2022-09-27T17:57:13;5.17;;;1.50;;
69956;SDS011;57283;54.816;9.482;2022-09-27T17:59:42;5.03;;;1.40;;
69956;SDS011;57283;54.816;9.482;2022-09-27T18:02:10;6.00;;;2.00;;
69956;SDS011;57283;54.816;9.482;2022-09-27T18:04:37;6.22;;;1.85;;
69956;SDS011;57283;54.816;9.482;2022-09-27T18:07:05;6.45;;;2.50;;
69956;SDS011;57283;54.816;9.482;2022-09-27T18:09:33;6.37;;;2.30;;
69956;SDS011;57283;54.816;9.482;2022-09-27T18:12:02;5.82;;;2.20;;
69956;SDS011;57283;54.816;9.482;2022-09-27T18:14:30;8.82;;;4.40;;
69956;SDS011;57283;54.816;9.482;2022-09-27T18:17:00;7.68;;;4.10;;
69956;SDS011;57283;54.816;9.482;2022-09-27T18:19:27;14.38;;;4.90;;
69956;SDS011;57283;54.816;9.482;2022-09-27T18:21:55;14.70;;;5.57;;